Time;durP1;ratioP1;P1;durP2;ratioP2;P2;SDS_P1;SDS_P2;PMS_P1;PMS_P2;Temp;Humidity;BMP_temperature;BMP_pressure;BME280_temperature;BME280_humidity;BME280_pressure;Samples;Min_cycle;Max_cycle;Signal;HPM_P1;HPM_P2
2023/10/24 00:01:19;;;;;;;26.02;18.52;;;11.20;99.90;;;;;;4992405;28;20046;-77
2023/10/24 00:03:45;;;;;;;26.48;22.90;;;11.20;99.90;;;;;;4994439;28;20126;-78
2023/10/24 00:06:11;;;;;;;24.85;19.77;;;11.20;99.90;;;;;;4993438;28;20045;-77
2023/10/24 00:08:36;;;;;;;24.85;20.83;;;11.20;99.90;;;;;;4994749;28;20107;-78
2023/10/24 00:11:04;;;;;;;26.85;21.42;;;11.20;99.90;;;;;;4998803;28;20371;-78
2023/10/24 00:13:30;;;;;;;25.92;19.33;;;11.20;99.90;;;;;;5014170;28;20052;-78
2023/10/24 00:16:00;;;;;;;24.92;19.27;;;11.20;99.90;;;;;;5002488;28;20103;-78
2023/10/24 00:18:26;;;;;;;24.02;20.88;;;11.10;99.90;;;;;;5008695;28;20103;-78
2023/10/24 00:20:52;;;;;;;23.50;19.33;;;11.20;99.90;;;;;;5000529;28;20501;-78
2023/10/24 00:23:18;;;;;;;28.45;21.60;;;11.20;99.90;;;;;;4989633;28;20061;-78
2023/10/24 00:25:44;;;;;;;26.58;20.55;;;11.20;99.90;;;;;;4990891;28;20046;-78
2023/10/24 00:28:09;;;;;;;26.58;22.52;;;11.20;99.90;;;;;;5110349;27;20137;-78
2023/10/24 00:30:35;;;;;;;24.52;20.15;;;11.20;99.90;;;;;;4995533;28;20044;-78
2023/10/24 00:33:01;;;;;;;24.63;20.77;;;11.20;99.90;;;;;;5006771;28;20046;-77
2023/10/24 00:35:27;;;;;;;25.58;22.27;;;11.20;99.90;;;;;;4997615;28;20050;-77
2023/10/24 00:37:52;;;;;;;22.85;18.60;;;11.20;99.90;;;;;;4993475;28;20500;-77
2023/10/24 00:40:21;;;;;;;25.58;21.02;;;11.20;99.90;;;;;;5006209;28;20049;-77
2023/10/24 00:42:47;;;;;;;24.17;19.73;;;11.20;99.90;;;;;;4995029;28;20266;-78
2023/10/24 00:45:12;;;;;;;25.15;21.48;;;11.20;99.90;;;;;;5004918;28;20437;-78
2023/10/24 00:47:39;;;;;;;27.02;22.42;;;11.20;99.90;;;;;;5016943;28;21585;-78
2023/10/24 00:50:07;;;;;;;24.20;19.73;;;11.20;99.90;;;;;;5003784;28;20042;-78
2023/10/24 00:52:34;;;;;;;27.08;20.23;;;11.20;99.90;;;;;;4995546;28;20046;-78
2023/10/24 00:55:01;;;;;;;26.60;20.30;;;11.20;99.90;;;;;;4993762;28;20085;-78
2023/10/24 00:57:27;;;;;;;26.52;20.63;;;11.20;99.90;;;;;;4997799;28;20046;-78
2023/10/24 00:59:54;;;;;;;27.92;20.75;;;11.20;99.90;;;;;;4994202;28;20092;-78
2023/10/24 01:02:20;;;;;;;23.75;19.75;;;11.20;99.90;;;;;;5004801;28;20370;-78
2023/10/24 01:04:47;;;;;;;25.27;21.70;;;11.20;99.90;;;;;;5004406;28;20085;-78
2023/10/24 01:07:13;;;;;;;23.50;19.40;;;11.20;99.90;;;;;;4992286;28;20046;-77
2023/10/24 01:09:39;;;;;;;26.08;19.75;;;11.30;99.90;;;;;;4998162;28;20049;-78
2023/10/24 01:12:06;;;;;;;25.20;19.98;;;11.30;99.90;;;;;;5010879;28;20118;-78
2023/10/24 01:14:32;;;;;;;22.20;18.30;;;11.30;99.90;;;;;;5000340;28;20046;-78
2023/10/24 01:16:58;;;;;;;24.67;19.33;;;11.30;99.90;;;;;;4993654;28;20478;-77
2023/10/24 01:19:24;;;;;;;24.20;19.65;;;11.30;99.90;;;;;;4997441;28;20079;-78
2023/10/24 01:21:50;;;;;;;24.02;18.80;;;11.30;99.90;;;;;;4999896;28;20082;-77
2023/10/24 01:24:17;;;;;;;23.08;20.48;;;11.30;99.90;;;;;;4991325;28;20031;-77
2023/10/24 01:26:43;;;;;;;23.48;19.63;;;11.30;99.90;;;;;;4989760;28;20065;-78
2023/10/24 01:29:09;;;;;;;24.55;18.42;;;11.30;99.90;;;;;;4997734;28;20053;-78
2023/10/24 01:31:35;;;;;;;23.83;19.38;;;11.30;99.90;;;;;;5004854;28;20118;-77
2023/10/24 01:34:00;;;;;;;23.20;20.88;;;11.30;99.90;;;;;;4998964;28;20129;-78
2023/10/24 01:36:26;;;;;;;24.48;19.55;;;11.30;99.90;;;;;;5098100;27;20046;-78
2023/10/24 01:38:52;;;;;;;21.83;19.52;;;11.30;99.90;;;;;;5101160;27;20039;-78
2023/10/24 01:41:17;;;;;;;22.80;18.60;;;11.30;99.90;;;;;;5009997;28;20663;-77
2023/10/24 01:43:43;;;;;;;22.23;19.20;;;11.20;99.90;;;;;;5000826;28;20041;-77
2023/10/24 01:46:09;;;;;;;22.60;20.30;;;11.30;99.90;;;;;;4994611;28;20125;-77
2023/10/24 01:48:34;;;;;;;22.65;20.10;;;11.30;99.90;;;;;;4994562;28;20124;-77
2023/10/24 01:51:00;;;;;;;22.98;18.88;;;11.30;99.90;;;;;;4995518;28;20034;-76
2023/10/24 01:53:26;;;;;;;25.73;18.58;;;11.30;99.90;;;;;;5009733;28;20094;-78
2023/10/24 01:55:52;;;;;;;21.30;18.50;;;11.30;99.90;;;;;;4994748;28;20046;-77
2023/10/24 01:58:18;;;;;;;22.02;19.25;;;11.30;99.90;;;;;;5000976;28;20506;-78
2023/10/24 02:00:43;;;;;;;21.33;18.02;;;11.30;99.90;;;;;;4997369;28;20680;-77
2023/10/24 02:03:09;;;;;;;22.90;17.42;;;11.30;99.90;;;;;;4999905;28;20043;-77
2023/10/24 02:05:35;;;;;;;23.33;20.30;;;11.30;99.90;;;;;;4992601;28;20038;-77
2023/10/24 02:08:02;;;;;;;21.60;18.08;;;11.30;99.90;;;;;;4992164;28;20240;-78
2023/10/24 02:10:28;;;;;;;26.50;19.95;;;11.30;99.90;;;;;;4999116;28;20116;-78
2023/10/24 02:12:53;;;;;;;23.48;19.23;;;11.30;99.90;;;;;;5000139;28;20121;-78
2023/10/24 02:15:19;;;;;;;25.05;19.63;;;11.30;99.90;;;;;;4989043;28;20069;-78
2023/10/24 02:17:45;;;;;;;21.90;18.70;;;11.30;99.90;;;;;;4991669;28;20064;-77
2023/10/24 02:20:10;;;;;;;24.63;18.52;;;11.30;99.90;;;;;;5000919;28;20046;-77
2023/10/24 02:22:36;;;;;;;24.17;19.15;;;11.30;99.90;;;;;;4992775;28;20409;-78
2023/10/24 02:25:02;;;;;;;24.38;19.73;;;11.30;99.90;;;;;;4998498;28;20145;-78
2023/10/24 02:27:27;;;;;;;24.35;21.73;;;11.30;99.90;;;;;;5005071;28;20065;-78
2023/10/24 02:29:53;;;;;;;23.90;20.92;;;11.30;99.90;;;;;;4993664;28;20478;-78
2023/10/24 02:32:19;;;;;;;23.77;18.45;;;11.40;99.90;;;;;;5000826;28;20502;-78
2023/10/24 02:34:51;;;;;;;24.48;19.42;;;11.40;99.90;;;;;;4987621;28;20046;-78
2023/10/24 02:37:17;;;;;;;24.67;19.10;;;11.40;99.90;;;;;;4993456;28;20042;-78
2023/10/24 02:39:42;;;;;;;27.92;21.95;;;11.30;99.90;;;;;;5012785;28;20033;-78
2023/10/24 02:42:08;;;;;;;26.27;20.15;;;11.30;99.90;;;;;;4993861;28;20053;-78
2023/10/24 02:44:34;;;;;;;24.58;19.25;;;11.40;99.90;;;;;;4996009;28;20042;-78
2023/10/24 02:46:59;;;;;;;28.38;21.05;;;11.30;99.90;;;;;;4987177;28;20046;-78
2023/10/24 02:49:25;;;;;;;26.83;20.42;;;11.30;99.90;;;;;;4987754;28;20053;-78
2023/10/24 02:51:51;;;;;;;25.98;20.60;;;11.30;99.90;;;;;;4995915;28;20076;-78
2023/10/24 02:54:17;;;;;;;26.50;20.58;;;11.30;99.90;;;;;;4994529;28;20075;-78
2023/10/24 02:56:43;;;;;;;27.33;19.42;;;11.30;99.90;;;;;;4997701;28;20041;-78
2023/10/24 02:59:08;;;;;;;28.05;22.55;;;11.30;99.90;;;;;;5001954;28;20038;-78
2023/10/24 03:01:35;;;;;;;27.42;20.38;;;11.30;99.90;;;;;;5002338;28;20129;-78
2023/10/24 03:04:00;;;;;;;26.20;19.13;;;11.30;99.90;;;;;;5005368;28;20041;-78
2023/10/24 03:06:26;;;;;;;31.40;21.92;;;11.30;99.90;;;;;;4996525;28;20038;-78
2023/10/24 03:08:52;;;;;;;25.45;18.10;;;11.40;99.90;;;;;;4995796;28;20060;-78
2023/10/24 03:11:24;;;;;;;29.42;23.98;;;11.40;99.90;;;;;;5008655;28;20050;-78
2023/10/24 03:13:52;;;;;;;26.00;20.15;;;11.40;99.90;;;;;;4993953;28;20058;-79
2023/10/24 03:16:18;;;;;;;27.65;21.55;;;11.40;99.90;;;;;;4990797;28;20088;-79
2023/10/24 03:18:43;;;;;;;26.33;20.92;;;11.40;99.90;;;;;;4991635;28;20050;-79
2023/10/24 03:21:09;;;;;;;27.92;22.95;;;11.40;99.90;;;;;;4987732;28;20129;-78
2023/10/24 03:23:35;;;;;;;28.15;23.05;;;11.40;99.90;;;;;;4988437;28;20088;-78
2023/10/24 03:26:05;;;;;;;26.45;21.50;;;11.40;99.90;;;;;;5009744;28;20070;-78
2023/10/24 03:28:30;;;;;;;25.95;22.70;;;11.40;99.90;;;;;;5108905;27;20056;-78
2023/10/24 03:31:06;;;;;;;27.40;20.95;;;11.40;99.90;;;;;;4992118;28;20125;-78
2023/10/24 03:33:33;;;;;;;27.98;20.20;;;11.40;99.90;;;;;;4992988;28;20053;-78
2023/10/24 03:35:59;;;;;;;26.73;20.65;;;11.50;99.90;;;;;;4989582;28;20133;-78
2023/10/24 03:38:26;;;;;;;29.58;22.00;;;11.40;99.90;;;;;;5002000;28;20034;-78
2023/10/24 03:40:55;;;;;;;28.00;22.80;;;11.50;99.90;;;;;;5004769;28;20550;-78
2023/10/24 03:43:21;;;;;;;28.38;20.17;;;11.50;99.90;;;;;;4990637;28;20115;-78
2023/10/24 03:45:47;;;;;;;26.13;20.83;;;11.40;99.90;;;;;;4990359;28;20050;-78
2023/10/24 03:48:13;;;;;;;27.08;20.63;;;11.50;99.90;;;;;;5002932;28;20042;-78
2023/10/24 03:50:39;;;;;;;28.60;22.00;;;11.40;99.90;;;;;;4992868;28;20106;-78
2023/10/24 03:53:06;;;;;;;26.33;18.90;;;11.50;99.90;;;;;;5005026;28;20580;-78
2023/10/24 03:55:32;;;;;;;25.58;20.92;;;11.50;99.90;;;;;;5001831;28;20079;-78
2023/10/24 03:57:58;;;;;;;24.10;18.67;;;11.50;99.90;;;;;;5008336;28;20480;-78
2023/10/24 04:00:24;;;;;;;27.77;21.08;;;11.50;99.90;;;;;;5009428;28;20129;-78
2023/10/24 04:02:53;;;;;;;22.05;18.08;;;11.50;99.90;;;;;;5000734;28;20073;-78
2023/10/24 04:05:19;;;;;;;26.20;20.25;;;11.60;99.90;;;;;;5004712;28;20137;-78
2023/10/24 04:07:45;;;;;;;23.88;18.65;;;11.50;99.90;;;;;;4997488;28;20130;-78
2023/10/24 04:10:13;;;;;;;21.85;19.55;;;11.60;99.90;;;;;;4995652;28;20047;-78
2023/10/24 04:12:39;;;;;;;23.50;18.45;;;11.60;99.90;;;;;;5000856;28;20045;-78
2023/10/24 04:15:05;;;;;;;23.13;20.75;;;11.60;99.90;;;;;;5000319;28;20042;-78
2023/10/24 04:17:32;;;;;;;24.50;20.63;;;11.60;99.90;;;;;;5109111;27;20062;-78
2023/10/24 04:19:58;;;;;;;23.67;20.30;;;11.60;99.90;;;;;;4991838;28;20815;-78
2023/10/24 04:22:24;;;;;;;23.30;20.85;;;11.60;99.90;;;;;;4989423;28;20121;-78
2023/10/24 04:24:50;;;;;;;23.73;20.08;;;11.60;99.90;;;;;;4995101;28;20045;-78
2023/10/24 04:27:16;;;;;;;23.43;19.43;;;11.70;99.90;;;;;;5005004;28;20079;-78
2023/10/24 04:29:42;;;;;;;22.77;19.90;;;11.60;99.90;;;;;;4994100;28;20816;-78
2023/10/24 04:32:08;;;;;;;23.15;20.65;;;11.60;99.90;;;;;;4991996;28;20046;-78
2023/10/24 04:34:34;;;;;;;25.73;20.63;;;11.70;99.90;;;;;;4997370;28;20043;-78
2023/10/24 04:37:01;;;;;;;22.15;19.95;;;11.70;99.90;;;;;;4989897;28;20042;-78
2023/10/24 04:39:27;;;;;;;21.35;17.63;;;11.70;99.90;;;;;;4987875;28;20042;-78
2023/10/24 04:41:53;;;;;;;23.98;21.42;;;11.70;99.90;;;;;;4996442;28;20125;-78
2023/10/24 04:44:19;;;;;;;22.17;19.58;;;11.60;99.90;;;;;;5010829;28;20041;-78
2023/10/24 04:46:45;;;;;;;21.90;19.58;;;11.70;99.90;;;;;;5014611;28;20108;-78
2023/10/24 04:49:11;;;;;;;23.40;19.48;;;11.70;99.90;;;;;;4989905;28;20394;-78
2023/10/24 04:51:37;;;;;;;21.58;18.05;;;11.70;99.90;;;;;;4997299;28;20061;-78
2023/10/24 04:54:03;;;;;;;19.77;17.40;;;11.70;99.90;;;;;;5002933;28;20042;-78
2023/10/24 04:56:28;;;;;;;18.38;16.45;;;11.70;99.90;;;;;;4996777;28;20144;-78
2023/10/24 04:58:57;;;;;;;17.20;15.50;;;11.70;99.90;;;;;;4998893;28;20050;-78
2023/10/24 05:01:22;;;;;;;15.80;13.70;;;11.70;99.90;;;;;;5016210;28;20081;-78
2023/10/24 05:03:48;;;;;;;18.27;14.90;;;11.70;99.90;;;;;;5109965;27;20487;-78
2023/10/24 05:06:14;;;;;;;16.35;14.48;;;11.70;99.90;;;;;;4990749;28;20045;-78
2023/10/24 05:08:40;;;;;;;15.02;13.50;;;11.70;99.90;;;;;;5004210;28;20049;-78
2023/10/24 05:11:06;;;;;;;15.82;14.13;;;11.70;99.90;;;;;;4996982;28;20046;-78
2023/10/24 05:13:31;;;;;;;15.95;13.48;;;11.70;99.90;;;;;;4994409;28;20485;-78
2023/10/24 05:15:57;;;;;;;13.63;11.35;;;11.70;99.90;;;;;;5001654;28;20046;-78
2023/10/24 05:18:24;;;;;;;13.93;12.45;;;11.70;99.90;;;;;;4991515;28;20537;-78
2023/10/24 05:20:50;;;;;;;13.95;12.55;;;11.70;99.90;;;;;;4988916;28;20054;-78
2023/10/24 05:23:16;;;;;;;15.32;13.38;;;11.70;99.90;;;;;;5103848;27;20042;-78
2023/10/24 05:25:42;;;;;;;15.23;12.63;;;11.70;99.90;;;;;;5005497;28;20565;-78
2023/10/24 05:28:08;;;;;;;26.05;18.40;;;11.70;99.90;;;;;;5011471;28;20056;-78
2023/10/24 05:30:36;;;;;;;44.88;24.60;;;11.70;99.90;;;;;;4986493;28;20065;-78
2023/10/24 05:33:03;;;;;;;79.57;44.42;;;11.70;99.90;;;;;;4996067;28;20409;-79
2023/10/24 05:35:29;;;;;;;84.45;44.95;;;11.70;99.90;;;;;;4996698;28;20126;-74
2023/10/24 05:37:55;;;;;;;80.03;43.90;;;11.70;99.90;;;;;;4998039;28;20434;-73
2023/10/24 05:40:21;;;;;;;54.22;31.67;;;11.70;99.90;;;;;;4997827;28;20046;-73
2023/10/24 05:42:47;;;;;;;39.85;26.50;;;11.70;99.90;;;;;;4999533;28;20492;-73
2023/10/24 05:45:13;;;;;;;31.88;23.42;;;11.70;99.90;;;;;;5003702;28;20129;-73
2023/10/24 05:47:38;;;;;;;26.77;20.35;;;11.70;99.90;;;;;;4998727;28;20061;-73
2023/10/24 05:50:05;;;;;;;18.90;15.75;;;11.70;99.90;;;;;;4995804;28;20133;-73
2023/10/24 05:52:31;;;;;;;19.73;17.63;;;11.70;99.90;;;;;;5012987;28;20034;-74
2023/10/24 05:54:57;;;;;;;17.63;14.88;;;11.70;99.90;;;;;;4994811;28;20050;-74
2023/10/24 05:57:24;;;;;;;16.65;14.65;;;11.70;99.90;;;;;;5003128;28;20132;-76
2023/10/24 05:59:51;;;;;;;15.20;13.10;;;11.70;99.90;;;;;;5001203;28;20046;-75
2023/10/24 06:02:17;;;;;;;14.82;12.30;;;11.70;99.90;;;;;;5005781;28;20083;-75
2023/10/24 06:04:43;;;;;;;12.85;11.18;;;11.70;99.90;;;;;;5003437;28;20093;-75
2023/10/24 06:07:08;;;;;;;13.10;11.63;;;11.60;99.90;;;;;;5006117;28;20414;-75
2023/10/24 06:09:34;;;;;;;11.95;10.85;;;11.70;99.90;;;;;;4996577;28;20042;-74
2023/10/24 06:12:00;;;;;;;14.95;11.70;;;11.70;99.90;;;;;;5113783;27;20073;-74
2023/10/24 06:14:25;;;;;;;15.00;12.23;;;11.70;99.90;;;;;;4992708;28;20496;-75
2023/10/24 06:16:52;;;;;;;15.80;14.10;;;11.70;99.90;;;;;;4993866;28;20061;-75
2023/10/24 06:19:17;;;;;;;14.77;12.73;;;11.70;99.90;;;;;;4999204;28;20038;-75
2023/10/24 06:21:43;;;;;;;16.02;14.27;;;11.70;99.90;;;;;;5003045;28;20111;-74
2023/10/24 06:24:09;;;;;;;16.05;13.60;;;11.70;99.90;;;;;;5014247;28;20039;-75
2023/10/24 06:26:34;;;;;;;15.65;13.80;;;11.70;99.90;;;;;;4997046;28;20527;-74
2023/10/24 06:29:00;;;;;;;15.18;13.57;;;11.70;99.90;;;;;;4999992;28;20133;-76
2023/10/24 06:31:28;;;;;;;15.15;13.55;;;11.70;99.90;;;;;;5006310;28;20045;-76
2023/10/24 06:33:54;;;;;;;15.73;13.38;;;11.70;99.90;;;;;;5003000;28;20049;-75
2023/10/24 06:36:21;;;;;;;14.90;13.27;;;11.70;99.90;;;;;;4996639;28;21158;-82
2023/10/24 06:38:47;;;;;;;17.33;13.07;;;11.70;99.90;;;;;;5007046;28;20050;-80
2023/10/24 06:41:13;;;;;;;18.27;16.38;;;11.70;99.90;;;;;;5010447;28;20045;-77
2023/10/24 06:43:39;;;;;;;15.68;14.07;;;11.70;99.90;;;;;;4997603;28;20046;-82
2023/10/24 06:46:05;;;;;;;13.50;11.38;;;11.70;99.90;;;;;;5099403;27;20046;-83
2023/10/24 06:48:31;;;;;;;14.57;12.93;;;11.70;99.90;;;;;;4996801;28;20058;-80
2023/10/24 06:50:58;;;;;;;15.38;13.77;;;11.70;99.90;;;;;;5013893;28;20757;-80
2023/10/24 06:53:24;;;;;;;14.93;12.73;;;11.70;99.90;;;;;;5005579;28;20049;-76
2023/10/24 06:55:50;;;;;;;14.27;12.50;;;11.70;99.90;;;;;;5000084;28;20041;-78
2023/10/24 06:58:15;;;;;;;13.13;11.63;;;11.70;99.90;;;;;;5014754;28;20054;-78
2023/10/24 07:00:42;;;;;;;13.52;12.13;;;11.70;99.90;;;;;;5030584;28;20416;-75
2023/10/24 07:03:08;;;;;;;12.13;10.77;;;11.70;99.90;;;;;;5008416;28;20039;-79
2023/10/24 07:05:34;;;;;;;13.68;12.27;;;11.70;99.90;;;;;;5001377;28;20109;-78
2023/10/24 07:07:59;;;;;;;14.30;11.90;;;11.70;99.90;;;;;;4997908;28;20436;-79
2023/10/24 07:10:25;;;;;;;13.52;12.15;;;11.70;99.90;;;;;;5002632;28;20042;-79
2023/10/24 07:12:51;;;;;;;13.77;12.18;;;11.70;99.90;;;;;;4990398;28;20444;-79
2023/10/24 07:15:16;;;;;;;15.45;13.60;;;11.70;99.90;;;;;;4995760;28;20102;-83
2023/10/24 07:17:42;;;;;;;16.48;14.52;;;11.80;99.90;;;;;;4998298;28;20054;-81
2023/10/24 07:20:09;;;;;;;15.20;13.63;;;11.70;99.90;;;;;;4991800;28;20057;-81
2023/10/24 07:22:34;;;;;;;19.25;15.63;;;11.70;99.90;;;;;;4989686;28;20066;-82
2023/10/24 07:25:00;;;;;;;16.45;13.60;;;11.80;99.90;;;;;;4994989;28;20081;-79
2023/10/24 07:27:26;;;;;;;15.95;14.35;;;11.80;99.90;;;;;;5000647;28;20466;-82
2023/10/24 07:29:51;;;;;;;15.00;13.40;;;11.80;99.90;;;;;;5011064;28;20132;-83
2023/10/24 07:32:17;;;;;;;14.85;13.25;;;11.70;99.90;;;;;;4987743;28;20047;-82
2023/10/24 07:34:43;;;;;;;14.32;12.80;;;11.80;99.90;;;;;;4997555;28;20042;-83
2023/10/24 07:37:09;;;;;;;14.90;12.98;;;11.80;99.90;;;;;;5099484;27;20489;-80
2023/10/24 07:39:36;;;;;;;14.80;12.52;;;11.80;99.90;;;;;;5001850;28;20038;-81
2023/10/24 07:42:02;;;;;;;13.82;12.13;;;11.70;99.90;;;;;;5001585;28;20064;-81
2023/10/24 07:44:28;;;;;;;19.08;11.57;;;11.80;99.90;;;;;;5003397;28;20062;-81
2023/10/24 07:46:53;;;;;;;14.57;13.07;;;11.70;99.90;;;;;;4986254;28;20176;-81
2023/10/24 07:49:19;;;;;;;14.32;12.93;;;11.80;99.90;;;;;;5001896;28;20400;-81
2023/10/24 07:51:45;;;;;;;14.45;12.30;;;11.80;99.90;;;;;;5006620;28;20050;-81
2023/10/24 07:54:11;;;;;;;13.82;12.35;;;11.80;99.90;;;;;;4988520;28;20042;-81
2023/10/24 07:56:40;;;;;;;12.27;10.95;;;11.80;99.90;;;;;;5098826;27;20053;-79
2023/10/24 07:59:07;;;;;;;12.77;11.45;;;11.80;99.90;;;;;;4996508;28;20038;-84
2023/10/24 08:01:33;;;;;;;13.60;12.23;;;11.80;99.90;;;;;;4996732;28;20045;-83
2023/10/24 08:03:59;;;;;;;13.88;11.45;;;11.80;99.90;;;;;;4998380;28;20034;-83
2023/10/24 08:06:25;;;;;;;14.07;12.02;;;11.80;99.90;;;;;;5008616;28;20061;-83
2023/10/24 08:08:51;;;;;;;14.65;12.82;;;11.80;99.90;;;;;;5004767;28;20058;-84
2023/10/24 08:11:17;;;;;;;13.13;11.18;;;11.70;99.90;;;;;;5007217;28;20072;-84
2023/10/24 08:13:42;;;;;;;13.50;12.20;;;11.80;99.90;;;;;;5004296;28;20034;-82
2023/10/24 08:16:08;;;;;;;12.90;11.48;;;11.80;99.90;;;;;;5008837;28;20046;-84
2023/10/24 08:18:37;;;;;;;13.48;11.88;;;11.70;99.90;;;;;;4992140;28;20057;-84
2023/10/24 08:21:03;;;;;;;13.23;11.60;;;11.70;99.90;;;;;;4994523;28;20041;-84
2023/10/24 08:23:29;;;;;;;13.88;12.43;;;11.80;99.90;;;;;;5012566;28;20111;-84
2023/10/24 08:25:56;;;;;;;13.75;12.15;;;11.80;99.90;;;;;;5111716;27;20041;-82
2023/10/24 08:28:22;;;;;;;;;;;11.70;99.90;;;;;;5005034;28;20113;-82
2023/10/24 08:30:48;;;;;;;14.38;12.88;;;11.70;99.90;;;;;;4989870;28;19976;-83
2023/10/24 08:33:15;;;;;;;14.05;12.75;;;11.70;99.90;;;;;;5000716;28;20065;-84
2023/10/24 08:35:41;;;;;;;12.50;11.20;;;11.70;99.90;;;;;;4989407;28;20111;-83
2023/10/24 08:38:06;;;;;;;13.02;11.85;;;11.70;99.90;;;;;;5002370;28;20050;-78
2023/10/24 08:40:32;;;;;;;12.48;11.38;;;11.70;99.90;;;;;;5004008;28;20482;-80
2023/10/24 08:42:58;;;;;;;12.60;11.40;;;11.80;99.90;;;;;;5003025;28;20050;-80
2023/10/24 08:45:26;;;;;;;12.82;11.57;;;11.80;99.90;;;;;;5009544;28;20049;-78
2023/10/24 08:47:53;;;;;;;13.13;11.82;;;11.80;99.90;;;;;;5007380;28;20459;-77
2023/10/24 08:50:19;;;;;;;11.52;10.43;;;11.70;99.90;;;;;;5005175;28;20063;-76
2023/10/24 08:52:45;;;;;;;11.90;10.35;;;11.80;99.90;;;;;;5000990;28;20125;-75
2023/10/24 08:55:12;;;;;;;10.80;9.65;;;11.80;99.90;;;;;;4995616;28;20721;-77
2023/10/24 08:57:41;;;;;;;10.82;9.80;;;11.80;99.90;;;;;;5000725;28;20046;-77
2023/10/24 09:00:10;;;;;;;10.63;9.52;;;11.80;99.90;;;;;;5001602;28;20049;-77
2023/10/24 09:02:37;;;;;;;10.18;9.18;;;11.80;99.90;;;;;;5013380;28;20033;-75
2023/10/24 09:05:03;;;;;;;11.55;10.55;;;11.90;99.90;;;;;;5008378;28;20103;-75
2023/10/24 09:07:29;;;;;;;11.40;10.30;;;11.90;99.90;;;;;;5001522;28;20117;-73
2023/10/24 09:09:55;;;;;;;11.02;10.02;;;11.90;99.90;;;;;;5001815;28;20814;-74
2023/10/24 09:12:21;;;;;;;12.25;10.50;;;11.90;99.90;;;;;;5006036;28;20041;-77
2023/10/24 09:14:48;;;;;;;11.15;10.07;;;12.00;99.90;;;;;;5001687;28;20183;-81
2023/10/24 09:17:17;;;;;;;10.53;9.53;;;11.90;99.90;;;;;;4994001;28;20084;-79
2023/10/24 09:19:43;;;;;;;13.07;11.70;;;12.00;99.90;;;;;;5103839;27;20045;-78
2023/10/24 09:22:10;;;;;;;10.75;9.63;;;12.00;99.90;;;;;;4992228;28;20050;-79
2023/10/24 09:24:36;;;;;;;10.80;9.63;;;12.10;99.90;;;;;;5103705;27;20448;-77
2023/10/24 09:27:01;;;;;;;10.02;9.13;;;12.10;99.90;;;;;;5009586;28;20065;-77
2023/10/24 09:29:27;;;;;;;10.68;9.15;;;12.00;99.90;;;;;;5002736;28;20053;-79
2023/10/24 09:31:54;;;;;;;10.70;9.23;;;12.10;99.90;;;;;;5001113;28;20096;-75
2023/10/24 09:34:20;;;;;;;10.75;9.75;;;12.10;99.90;;;;;;5009278;28;20386;-76
2023/10/24 09:36:46;;;;;;;9.98;8.55;;;12.10;99.90;;;;;;4993146;28;20049;-75
2023/10/24 09:39:13;;;;;;;9.50;8.55;;;12.10;99.90;;;;;;4993882;28;20036;-75
2023/10/24 09:41:43;;;;;;;8.90;8.00;;;12.10;99.90;;;;;;5001429;28;20055;-75
2023/10/24 09:44:10;;;;;;;9.63;8.07;;;12.10;99.90;;;;;;5012027;28;20038;-75
2023/10/24 09:46:36;;;;;;;9.20;8.23;;;12.10;99.90;;;;;;5014539;28;20481;-75
2023/10/24 09:49:04;;;;;;;9.50;8.55;;;12.10;99.90;;;;;;4993134;28;20479;-75
2023/10/24 09:51:32;;;;;;;8.60;7.70;;;12.10;99.90;;;;;;5003364;28;20543;-76
2023/10/24 09:53:58;;;;;;;;;;;12.10;99.90;;;;;;5006927;28;21699;-77
2023/10/24 09:56:25;;;;;;;13.07;7.53;;;12.00;99.90;;;;;;4993555;28;19922;-78
2023/10/24 09:58:52;;;;;;;8.15;7.35;;;12.00;99.90;;;;;;5002115;28;20068;-76
2023/10/24 10:01:18;;;;;;;8.52;7.72;;;12.10;99.90;;;;;;5000506;28;20065;-78
2023/10/24 10:03:44;;;;;;;8.43;7.63;;;12.10;99.90;;;;;;5008084;28;20477;-78
2023/10/24 10:06:13;;;;;;;8.63;7.82;;;12.10;99.90;;;;;;5014508;28;20935;-79
2023/10/24 10:08:41;;;;;;;8.73;7.88;;;12.10;99.90;;;;;;5006439;28;20050;-78
2023/10/24 10:11:07;;;;;;;11.43;8.45;;;12.10;99.90;;;;;;4992420;28;20042;-80
2023/10/24 10:14:05;;;;;;;9.05;8.15;;;12.10;99.90;;;;;;4997054;28;20056;-79
2023/10/24 10:16:52;;;;;;;10.90;9.80;;;12.10;99.90;;;;;;5005748;28;20078;-78
2023/10/24 10:19:27;;;;;;;9.90;8.68;;;12.10;99.90;;;;;;4988018;28;20603;-79
2023/10/24 10:22:31;;;;;;;9.63;8.73;;;12.10;99.90;;;;;;5001058;28;20512;-85
2023/10/24 10:25:18;;;;;;;10.63;9.60;;;12.20;99.90;;;;;;5006256;28;20056;-84
2023/10/24 10:28:10;;;;;;;13.57;11.18;;;12.20;99.90;;;;;;5012666;28;20060;-76
2023/10/24 10:30:59;;;;;;;11.15;10.15;;;12.20;99.90;;;;;;5021714;28;20108;-83
2023/10/24 10:33:25;;;;;;;12.63;11.38;;;12.20;99.90;;;;;;5001414;28;20042;-81
2023/10/24 10:36:04;;;;;;;12.10;10.90;;;12.30;99.90;;;;;;5000472;28;20594;-83
2023/10/24 10:38:46;;;;;;;12.07;10.88;;;12.20;99.90;;;;;;5012679;28;20046;-79
2023/10/24 10:41:21;;;;;;;11.93;10.73;;;12.20;99.90;;;;;;4997382;28;20058;-76
2023/10/24 10:43:47;;;;;;;12.60;11.32;;;12.30;99.90;;;;;;5001673;28;20038;-79
2023/10/24 10:46:20;;;;;;;12.43;11.23;;;12.30;99.90;;;;;;5005805;28;20049;-79
2023/10/24 10:48:49;;;;;;;12.10;10.90;;;12.20;99.90;;;;;;5002107;28;20054;-79
2023/10/24 10:51:22;;;;;;;12.30;11.00;;;12.30;99.90;;;;;;4986595;28;20046;-80
2023/10/24 10:54:01;;;;;;;11.82;10.73;;;12.30;99.90;;;;;;5003673;28;20497;-83
2023/10/24 10:56:30;;;;;;;11.55;10.45;;;12.30;99.90;;;;;;4989438;28;20057;-80
2023/10/24 10:59:11;;;;;;;11.20;10.13;;;12.40;99.90;;;;;;5011467;28;20046;-80
2023/10/24 11:02:04;;;;;;;11.23;10.13;;;12.50;99.90;;;;;;4989078;28;20133;-80
2023/10/24 11:04:30;;;;;;;11.43;10.20;;;12.50;99.90;;;;;;4991556;28;20042;-79
2023/10/24 11:06:58;;;;;;;11.87;10.60;;;12.50;99.90;;;;;;5017179;28;20128;-77
2023/10/24 11:09:30;;;;;;;11.48;10.35;;;12.60;99.90;;;;;;5012395;28;20097;-76
2023/10/24 11:12:20;;;;;;;11.55;10.40;;;12.60;99.90;;;;;;4987583;28;20077;-77
2023/10/24 11:15:05;;;;;;;12.30;11.15;;;12.70;99.90;;;;;;4987596;28;20046;-76
2023/10/24 11:17:32;;;;;;;12.27;11.07;;;12.70;99.90;;;;;;4988164;28;20125;-77
2023/10/24 11:20:02;;;;;;;12.23;11.10;;;12.80;99.90;;;;;;5094542;27;20102;-77
2023/10/24 11:22:31;;;;;;;12.20;11.10;;;12.80;99.90;;;;;;4993892;28;20550;-76
2023/10/24 11:24:57;;;;;;;12.00;10.80;;;12.80;99.90;;;;;;4986330;28;20107;-76
2023/10/24 11:27:23;;;;;;;12.23;11.02;;;12.90;99.90;;;;;;5004487;28;20144;-77
2023/10/24 11:29:51;;;;;;;11.95;10.85;;;12.90;99.90;;;;;;4993284;28;20115;-77
2023/10/24 11:32:19;;;;;;;12.63;11.25;;;13.00;99.90;;;;;;4989079;28;20046;-77
2023/10/24 11:34:46;;;;;;;12.60;11.30;;;13.00;99.90;;;;;;4999861;28;20203;-76
2023/10/24 11:37:11;;;;;;;11.88;10.75;;;13.10;99.90;;;;;;5005890;28;20046;-77
2023/10/24 11:39:43;;;;;;;11.60;10.50;;;13.10;99.90;;;;;;5000305;28;20044;-77
2023/10/24 11:42:09;;;;;;;12.27;11.07;;;13.20;99.90;;;;;;4990903;28;20072;-77
2023/10/24 11:44:34;;;;;;;12.40;11.10;;;13.30;99.90;;;;;;4995163;28;20083;-77
2023/10/24 11:47:04;;;;;;;12.60;10.88;;;13.30;99.90;;;;;;4997166;28;20051;-77
2023/10/24 11:49:36;;;;;;;12.10;10.70;;;13.30;99.90;;;;;;4985528;28;20046;-77
2023/10/24 11:52:04;;;;;;;11.82;10.63;;;13.30;99.90;;;;;;4994524;28;20088;-77
2023/10/24 11:54:30;;;;;;;11.65;10.43;;;13.40;99.90;;;;;;4989346;28;20038;-77
2023/10/24 11:56:56;;;;;;;12.30;11.00;;;13.40;99.90;;;;;;5011708;28;20045;-77
2023/10/24 11:59:22;;;;;;;11.13;10.03;;;13.40;99.90;;;;;;5004145;28;20069;-77
2023/10/24 12:01:49;;;;;;;10.43;9.32;;;13.50;99.90;;;;;;4996868;28;20297;-77
2023/10/24 12:04:15;;;;;;;10.77;9.73;;;13.60;99.90;;;;;;5008272;28;20034;-77
2023/10/24 12:06:41;;;;;;;10.68;9.60;;;13.60;99.90;;;;;;4993820;28;20043;-77
2023/10/24 12:09:07;;;;;;;11.38;10.18;;;13.60;99.90;;;;;;4988772;28;20411;-77
2023/10/24 12:11:33;;;;;;;11.93;10.73;;;13.50;99.90;;;;;;5007050;28;20049;-77
2023/10/24 12:14:00;;;;;;;10.88;9.88;;;13.50;99.90;;;;;;4992925;28;20050;-77
2023/10/24 12:16:29;;;;;;;11.55;10.43;;;13.50;99.90;;;;;;4995013;28;20091;-77
2023/10/24 12:18:55;;;;;;;11.65;10.43;;;13.50;99.90;;;;;;4988828;28;20393;-77
2023/10/24 12:21:21;;;;;;;11.15;10.07;;;13.40;99.90;;;;;;5102143;27;20042;-77
2023/10/24 12:23:46;;;;;;;11.45;10.00;;;13.40;99.90;;;;;;5099230;27;20058;-77
2023/10/24 12:26:12;;;;;;;11.07;9.98;;;13.30;99.90;;;;;;5105664;27;20046;-77
2023/10/24 12:28:42;;;;;;;12.32;10.90;;;13.30;99.90;;;;;;4988168;28;20053;-77